createdAt,value
2023-03-07T00:06:13.055Z,0
2023-03-07T00:20:13.077Z,0
2023-03-07T00:34:13.184Z,0.6
2023-03-07T00:48:13.166Z,0
2023-03-07T01:05:20.528Z,0
2023-03-07T01:19:20.638Z,0
2023-03-07T01:29:02.940Z,0
2023-03-07T01:43:58.987Z,0
2023-03-07T01:57:58.914Z,0
2023-03-07T02:11:58.877Z,0
2023-03-07T02:21:06.291Z,0.4
2023-03-07T02:30:28.702Z,0
2023-03-07T02:37:08.291Z,0
2023-03-07T02:47:24.210Z,0
2023-03-07T02:56:48.820Z,0
2023-03-07T03:10:48.922Z,0
2023-03-07T03:24:20.000Z,0
2023-03-07T03:36:24.636Z,0
2023-03-07T03:50:24.719Z,0
2023-03-07T04:04:24.704Z,0
2023-03-07T04:13:53.261Z,0
2023-03-07T04:30:20.824Z,0
2023-03-07T04:44:34.579Z,0
2023-03-07T04:55:52.956Z,0
2023-03-07T05:19:36.453Z,0
2023-03-07T05:29:10.882Z,0
2023-03-07T05:46:18.528Z,0
2023-03-07T06:00:38.080Z,0
2023-03-07T06:11:18.414Z,0
2023-03-07T06:19:57.112Z,0
2023-03-07T06:43:16.225Z,0
2023-03-07T06:58:16.273Z,0
2023-03-07T07:07:34.448Z,0
2023-03-07T07:22:34.552Z,0
2023-03-07T07:42:22.597Z,0
2023-03-07T07:59:26.063Z,0
2023-03-07T08:08:26.684Z,0.2
2023-03-07T08:24:40.151Z,1.5
2023-03-07T08:39:31.196Z,0.8
2023-03-07T08:58:10.000Z,1.0
2023-03-07T09:07:46.834Z,0.6
2023-03-07T09:14:36.494Z,1.3
2023-03-07T09:41:59.351Z,0.2
2023-03-07T09:54:41.830Z,0.6
2023-03-07T10:01:11.282Z,0.7
2023-03-07T10:11:52.372Z,0.9
2023-03-07T10:27:16.130Z,0.6
2023-03-07T10:41:43.706Z,1.0
2023-03-07T10:50:26.484Z,1.6
2023-03-07T11:02:20.502Z,1.2
2023-03-07T11:12:14.279Z,0.6
2023-03-07T11:19:08.925Z,1.1
2023-03-07T11:35:09.175Z,0.8
2023-03-07T11:50:41.040Z,1.0
2023-03-07T12:07:08.920Z,0.8
2023-03-07T12:17:43.286Z,0.9
2023-03-07T12:28:19.037Z,0.9
2023-03-07T12:34:56.679Z,0.7
2023-03-07T12:50:38.508Z,1.7
2023-03-07T13:07:39.043Z,0.9
2023-03-07T13:17:03.974Z,0.8
2023-03-07T13:25:09.317Z,0.4
2023-03-07T13:31:14.730Z,0.4
2023-03-07T13:46:14.638Z,0.8
2023-03-07T13:55:32.928Z,0.8
2023-03-07T14:07:17.820Z,0
2023-03-07T14:13:35.149Z,0
2023-03-07T14:27:51.276Z,0
2023-03-07T14:40:03.972Z,0.4
2023-03-07T14:50:35.362Z,0.8
2023-03-07T15:10:27.876Z,0.8
2023-03-07T15:25:26.255Z,0.8
2023-03-07T15:52:20.620Z,0
2023-03-07T16:12:20.405Z,0
2023-03-07T16:28:51.791Z,0
2023-03-07T16:44:40.048Z,0
2023-03-07T17:06:39.376Z,0
2023-03-07T17:21:36.649Z,0
2023-03-07T17:28:06.210Z,0
2023-03-07T17:46:15.415Z,0
2023-03-07T17:52:02.239Z,0
2023-03-07T18:02:51.644Z,0
2023-03-07T18:08:31.751Z,0
2023-03-07T18:32:35.627Z,0.8
2023-03-07T18:37:07.588Z,0
2023-03-07T18:50:52.420Z,0
2023-03-07T19:00:31.338Z,0
2023-03-07T19:18:57.588Z,0.8
2023-03-07T19:33:22.705Z,0
2023-03-07T19:47:22.708Z,0
2023-03-07T19:55:47.221Z,0
2023-03-07T20:29:46.342Z,0
2023-03-07T20:41:42.929Z,0.2
2023-03-07T20:57:20.358Z,0.6
2023-03-07T21:14:36.518Z,0
2023-03-07T21:20:37.926Z,0
2023-03-07T21:40:00.169Z,0
2023-03-07T21:50:07.187Z,0
2023-03-07T21:55:58.679Z,0.8
2023-03-07T22:17:20.786Z,0
2023-03-07T22:31:21.026Z,0
2023-03-07T22:37:33.397Z,0.6
2023-03-07T22:47:14.994Z,0.8
2023-03-07T23:01:15.049Z,0.6
2023-03-07T23:09:42.540Z,0.8
2023-03-07T23:23:42.713Z,0.8
2023-03-07T23:37:42.651Z,0.8
